Time;durP1;ratioP1;P1;durP2;ratioP2;P2;SDS_P1;SDS_P2;PMS_P1;PMS_P2;Temp;Humidity;BMP_temperature;BMP_pressure;BME280_temperature;BME280_humidity;BME280_pressure;Samples;Min_cycle;Max_cycle;Signal;HPM_P1;HPM_P2
2022/07/24 00:00:05;;;;;;;4.97;4.43;;;;;;;;;;5036373;28;20087;-67
2022/07/24 00:02:31;;;;;;;5.07;4.65;;;;;;;;;;5035623;28;20086;-67
2022/07/24 00:04:57;;;;;;;6.13;4.88;;;;;;;;;;5035243;28;20067;-67
2022/07/24 00:07:23;;;;;;;4.85;4.45;;;;;;;;;;5036072;28;20560;-67
2022/07/24 00:09:49;;;;;;;5.10;4.70;;;;;;;;;;5032213;28;20049;-67
2022/07/24 00:12:15;;;;;;;5.10;4.60;;;;;;;;;;5033471;28;20060;-67
2022/07/24 00:14:41;;;;;;;5.88;4.80;;;;;;;;;;5046911;28;20098;-67
2022/07/24 00:17:07;;;;;;;5.75;5.00;;;;;;;;;;5042058;28;20098;-67
2022/07/24 00:19:33;;;;;;;4.97;4.57;;;;;;;;;;5037100;28;20091;-67
2022/07/24 00:22:01;;;;;;;5.53;5.03;;;;;;;;;;5034585;28;20045;-67
2022/07/24 00:24:27;;;;;;;5.45;4.95;;;;;;;;;;5036951;28;20041;-67
2022/07/24 00:26:53;;;;;;;5.70;4.75;;;;;;;;;;5035670;28;20049;-67
2022/07/24 00:29:19;;;;;;;5.97;4.68;;;;;;;;;;5033207;28;20107;-67
2022/07/24 00:31:45;;;;;;;5.25;4.75;;;;;;;;;;5039150;28;20052;-67
2022/07/24 00:34:11;;;;;;;6.45;5.10;;;;;;;;;;5038106;28;20047;-67
2022/07/24 00:36:37;;;;;;;5.65;5.03;;;;;;;;;;5035063;28;20046;-67
2022/07/24 00:39:03;;;;;;;5.70;5.20;;;;;;;;;;5032670;28;20045;-67
2022/07/24 00:41:29;;;;;;;5.22;4.72;;;;;;;;;;5035922;28;20060;-67
2022/07/24 00:44:10;;;;;;;5.25;4.75;;;;;;;;;;5033800;28;20077;-67
2022/07/24 00:46:38;;;;;;;5.38;4.88;;;;;;;;;;5033298;28;20049;-67
2022/07/24 00:49:05;;;;;;;5.90;5.10;;;;;;;;;;5033172;28;20398;-67
2022/07/24 00:51:31;;;;;;;5.40;5.00;;;;;;;;;;5038127;28;20539;-67
2022/07/24 00:53:57;;;;;;;5.57;5.07;;;;;;;;;;5038812;28;20165;-67
2022/07/24 00:56:23;;;;;;;5.90;5.03;;;;;;;;;;5034255;28;20042;-67
2022/07/24 00:58:49;;;;;;;5.35;4.90;;;;;;;;;;5033422;28;20094;-67
2022/07/24 01:01:16;;;;;;;5.53;4.93;;;;;;;;;;5035801;28;21369;-67
2022/07/24 01:03:42;;;;;;;5.45;5.03;;;;;;;;;;5038134;28;20052;-67
2022/07/24 01:06:08;;;;;;;5.55;5.05;;;;;;;;;;5041319;28;20053;-67
2022/07/24 01:08:36;;;;;;;5.25;4.78;;;;;;;;;;5034242;28;20524;-67
2022/07/24 01:11:02;;;;;;;7.03;5.05;;;;;;;;;;5036042;28;20053;-67
2022/07/24 01:13:29;;;;;;;5.13;4.63;;;;;;;;;;5033635;28;20389;-68
2022/07/24 01:15:56;;;;;;;5.70;5.20;;;;;;;;;;5034822;28;20142;-67
2022/07/24 01:18:21;;;;;;;5.70;5.20;;;;;;;;;;5034646;28;20652;-67
2022/07/24 01:20:48;;;;;;;5.63;5.10;;;;;;;;;;5036515;28;20374;-67
2022/07/24 01:23:14;;;;;;;5.97;5.47;;;;;;;;;;5032338;28;20045;-67
2022/07/24 01:25:41;;;;;;;5.75;5.10;;;;;;;;;;5037615;28;20146;-67
2022/07/24 01:28:07;;;;;;;5.82;5.32;;;;;;;;;;5031418;28;20044;-67
2022/07/24 01:30:33;;;;;;;5.47;5.05;;;;;;;;;;5034381;28;20048;-67
2022/07/24 01:32:59;;;;;;;6.40;5.45;;;;;;;;;;5050310;28;20037;-67
2022/07/24 01:35:25;;;;;;;5.47;5.03;;;;;;;;;;5044801;28;20053;-67
2022/07/24 01:37:52;;;;;;;5.47;5.03;;;;;;;;;;5032925;28;20041;-67
2022/07/24 01:40:18;;;;;;;7.50;5.60;;;;;;;;;;5034940;28;20081;-66
2022/07/24 01:42:44;;;;;;;5.95;5.45;;;;;;;;;;5033997;28;20412;-67
2022/07/24 01:45:10;;;;;;;5.93;5.40;;;;;;;;;;5034162;28;20072;-67
2022/07/24 01:47:36;;;;;;;6.50;5.50;;;;;;;;;;5033189;28;20128;-67
2022/07/24 01:50:03;;;;;;;5.82;5.22;;;;;;;;;;5032357;28;20085;-67
2022/07/24 01:52:29;;;;;;;5.60;5.10;;;;;;;;;;5038260;28;20032;-67
2022/07/24 01:54:55;;;;;;;5.85;5.35;;;;;;;;;;5029709;28;20444;-67
2022/07/24 01:57:21;;;;;;;6.20;5.28;;;;;;;;;;5035362;28;20047;-66
2022/07/24 01:59:47;;;;;;;6.70;5.60;;;;;;;;;;5036999;28;20049;-67
2022/07/24 02:02:13;;;;;;;5.82;5.32;;;;;;;;;;5030865;28;20076;-67
2022/07/24 02:04:39;;;;;;;5.88;5.38;;;;;;;;;;5034554;28;20091;-67
2022/07/24 02:07:05;;;;;;;5.93;5.32;;;;;;;;;;5030315;28;20057;-67
2022/07/24 02:09:31;;;;;;;6.32;5.72;;;;;;;;;;5045779;28;20064;-67
2022/07/24 02:11:57;;;;;;;6.65;6.07;;;;;;;;;;5032245;28;20417;-67
2022/07/24 02:14:23;;;;;;;5.78;5.05;;;;;;;;;;5031111;28;20046;-67
2022/07/24 02:16:49;;;;;;;7.88;5.72;;;;;;;;;;5042104;28;20060;-67
2022/07/24 02:19:15;;;;;;;6.18;5.60;;;;;;;;;;5032794;28;20536;-67
2022/07/24 02:21:41;;;;;;;5.68;5.18;;;;;;;;;;5034820;28;20077;-68
2022/07/24 02:24:07;;;;;;;9.07;5.88;;;;;;;;;;5042936;28;20037;-66
2022/07/24 02:26:34;;;;;;;6.53;5.93;;;;;;;;;;5034977;28;20440;-67
2022/07/24 02:29:00;;;;;;;7.68;5.75;;;;;;;;;;5036629;28;20091;-67
2022/07/24 02:31:26;;;;;;;6.60;6.00;;;;;;;;;;5043324;28;20045;-67
2022/07/24 02:33:52;;;;;;;6.25;5.75;;;;;;;;;;5040052;28;20411;-67
2022/07/24 02:36:18;;;;;;;6.10;5.60;;;;;;;;;;5038980;28;20470;-67
2022/07/24 02:38:44;;;;;;;6.63;6.03;;;;;;;;;;5036461;28;20037;-67
2022/07/24 02:41:10;;;;;;;7.05;6.07;;;;;;;;;;5038056;28;20056;-67
2022/07/24 02:43:36;;;;;;;7.22;6.47;;;;;;;;;;5037553;28;20106;-67
2022/07/24 02:46:02;;;;;;;9.10;6.60;;;;;;;;;;5034657;28;20096;-67
2022/07/24 02:48:28;;;;;;;7.55;6.03;;;;;;;;;;5036142;28;20081;-67
2022/07/24 02:50:54;;;;;;;8.32;6.28;;;;;;;;;;5047072;28;20071;-67
2022/07/24 02:53:20;;;;;;;7.00;6.30;;;;;;;;;;5039950;28;20046;-67
2022/07/24 02:55:46;;;;;;;8.55;6.55;;;;;;;;;;5046470;28;20037;-67
2022/07/24 02:58:12;;;;;;;8.23;6.68;;;;;;;;;;5035902;28;20167;-67
2022/07/24 03:00:39;;;;;;;7.22;6.55;;;;;;;;;;5032843;28;20508;-67
2022/07/24 03:03:05;;;;;;;7.68;6.70;;;;;;;;;;5038314;28;20052;-67
2022/07/24 03:05:31;;;;;;;8.02;6.93;;;;;;;;;;5039781;28;20037;-67
2022/07/24 03:07:57;;;;;;;7.40;6.68;;;;;;;;;;5034101;28;20041;-67
2022/07/24 03:10:23;;;;;;;7.25;6.63;;;;;;;;;;5037868;28;20048;-68
2022/07/24 03:12:49;;;;;;;8.20;6.80;;;;;;;;;;5038177;28;20048;-67
2022/07/24 03:15:15;;;;;;;7.78;6.97;;;;;;;;;;5039119;28;20552;-67
2022/07/24 03:17:49;;;;;;;7.95;7.18;;;;;;;;;;5036485;28;20064;-67
2022/07/24 03:20:15;;;;;;;7.85;6.97;;;;;;;;;;5037044;28;20503;-67
2022/07/24 03:22:41;;;;;;;8.48;7.25;;;;;;;;;;5034167;28;20052;-67
2022/07/24 03:25:07;;;;;;;9.65;8.10;;;;;;;;;;5037131;28;20103;-67
2022/07/24 03:27:33;;;;;;;8.88;7.85;;;;;;;;;;5035991;28;20037;-67
2022/07/24 03:29:59;;;;;;;9.20;8.25;;;;;;;;;;5036687;28;20503;-67
2022/07/24 03:32:25;;;;;;;9.02;8.20;;;;;;;;;;5039858;28;20050;-67
2022/07/24 03:34:51;;;;;;;9.18;8.10;;;;;;;;;;5032793;28;20049;-67
2022/07/24 03:37:17;;;;;;;9.85;8.85;;;;;;;;;;5045802;28;20547;-67
2022/07/24 03:39:43;;;;;;;10.40;9.50;;;;;;;;;;5039311;28;20033;-67
2022/07/24 03:42:09;;;;;;;9.63;8.73;;;;;;;;;;5035592;28;20413;-67
2022/07/24 03:44:35;;;;;;;12.23;9.20;;;;;;;;;;5033536;28;20405;-67
2022/07/24 03:47:01;;;;;;;10.75;9.35;;;;;;;;;;5035501;28;20045;-67
2022/07/24 03:49:27;;;;;;;11.32;9.88;;;;;;;;;;5032016;28;20041;-67
2022/07/24 03:51:53;;;;;;;11.27;10.07;;;;;;;;;;5038767;28;20715;-67
2022/07/24 03:54:19;;;;;;;11.65;10.45;;;;;;;;;;5036358;28;20049;-67
2022/07/24 03:56:45;;;;;;;12.07;10.77;;;;;;;;;;5034529;28;20124;-67
2022/07/24 03:59:11;;;;;;;11.73;10.57;;;;;;;;;;5039648;28;20041;-67
2022/07/24 04:01:37;;;;;;;11.88;10.68;;;;;;;;;;5043342;28;20029;-67
2022/07/24 04:04:04;;;;;;;12.20;11.00;;;;;;;;;;5035753;28;20476;-68
2022/07/24 04:06:32;;;;;;;12.98;11.65;;;;;;;;;;5036436;28;20056;-67
2022/07/24 04:08:58;;;;;;;14.20;12.80;;;;;;;;;;5035464;28;20052;-67
2022/07/24 04:11:24;;;;;;;13.77;12.38;;;;;;;;;;5042412;28;20095;-67
2022/07/24 04:13:50;;;;;;;14.10;12.80;;;;;;;;;;5030641;28;20468;-67
2022/07/24 04:16:16;;;;;;;14.20;12.90;;;;;;;;;;5033017;28;20052;-67
2022/07/24 04:18:42;;;;;;;15.40;13.80;;;;;;;;;;5030992;28;20572;-68
2022/07/24 04:21:08;;;;;;;15.50;13.82;;;;;;;;;;5048696;28;20051;-67
2022/07/24 04:23:35;;;;;;;15.13;13.55;;;;;;;;;;5031912;28;20053;-68
2022/07/24 04:26:04;;;;;;;15.07;13.68;;;;;;;;;;5032557;28;20072;-67
2022/07/24 04:28:30;;;;;;;15.35;13.85;;;;;;;;;;5039552;28;20073;-68
2022/07/24 04:30:56;;;;;;;16.55;14.98;;;;;;;;;;5045627;28;20129;-67
2022/07/24 04:33:22;;;;;;;15.63;14.13;;;;;;;;;;5039019;28;20111;-67
2022/07/24 04:35:48;;;;;;;15.32;13.82;;;;;;;;;;5043157;28;20091;-67
2022/07/24 04:38:14;;;;;;;14.82;13.43;;;;;;;;;;5048331;28;20082;-67
2022/07/24 04:40:41;;;;;;;14.38;12.88;;;;;;;;;;5036045;28;20077;-67
2022/07/24 04:43:10;;;;;;;14.68;13.25;;;;;;;;;;5034369;28;20081;-67
2022/07/24 04:45:36;;;;;;;14.88;13.48;;;;;;;;;;5040151;28;20121;-67
2022/07/24 04:48:03;;;;;;;14.90;13.43;;;;;;;;;;5043642;28;20176;-68
2022/07/24 04:50:29;;;;;;;15.52;13.93;;;;;;;;;;5037480;28;20404;-68
2022/07/24 04:52:57;;;;;;;14.63;13.25;;;;;;;;;;5027048;28;20041;-68
2022/07/24 04:55:23;;;;;;;14.95;13.35;;;;;;;;;;5031197;28;20052;-67
2022/07/24 04:57:49;;;;;;;15.23;13.55;;;;;;;;;;5032057;28;20038;-67
2022/07/24 05:00:15;;;;;;;14.30;12.82;;;;;;;;;;5031133;28;20060;-67
2022/07/24 05:02:42;;;;;;;13.88;12.40;;;;;;;;;;5030961;28;20057;-67
2022/07/24 05:05:08;;;;;;;13.38;12.02;;;;;;;;;;5030252;28;20131;-68
2022/07/24 05:07:34;;;;;;;13.50;12.10;;;;;;;;;;5032220;28;20048;-67
2022/07/24 05:10:00;;;;;;;13.50;12.15;;;;;;;;;;5038312;28;20076;-67
2022/07/24 05:12:27;;;;;;;13.20;11.82;;;;;;;;;;5050416;28;20481;-67
2022/07/24 05:14:53;;;;;;;13.35;12.02;;;;;;;;;;5035065;28;20052;-67
2022/07/24 05:17:19;;;;;;;12.40;11.10;;;;;;;;;;5032572;28;20050;-67
2022/07/24 05:19:45;;;;;;;12.25;11.05;;;;;;;;;;5038484;28;20424;-67
2022/07/24 05:22:11;;;;;;;12.88;11.32;;;;;;;;;;5043692;28;20080;-67
2022/07/24 05:24:37;;;;;;;13.20;11.73;;;;;;;;;;5029696;28;20087;-67
2022/07/24 05:27:03;;;;;;;12.48;11.00;;;;;;;;;;5028896;28;20280;-67
2022/07/24 05:29:29;;;;;;;11.57;10.48;;;;;;;;;;5050662;28;20051;-67
2022/07/24 05:31:55;;;;;;;11.10;9.98;;;;;;;;;;5051620;28;20124;-67
2022/07/24 05:34:21;;;;;;;12.45;10.70;;;;;;;;;;5049680;28;20049;-67
2022/07/24 05:36:47;;;;;;;11.15;9.13;;;;;;;;;;5044797;28;20041;-68
2022/07/24 05:39:13;;;;;;;11.73;8.60;;;;;;;;;;5032018;28;20455;-67
2022/07/24 05:41:39;;;;;;;8.15;7.35;;;;;;;;;;5047255;28;20053;-68
2022/07/24 05:44:06;;;;;;;9.65;6.50;;;;;;;;;;5032135;28;20454;-68
2022/07/24 05:46:32;;;;;;;7.82;6.43;;;;;;;;;;5031617;28;20113;-68
2022/07/24 05:48:58;;;;;;;8.80;6.03;;;;;;;;;;5032501;28;20439;-68
2022/07/24 05:51:25;;;;;;;8.10;5.63;;;;;;;;;;5051902;28;20098;-68
2022/07/24 05:53:51;;;;;;;5.75;5.15;;;;;;;;;;5051350;28;20051;-68
2022/07/24 05:56:17;;;;;;;5.40;4.80;;;;;;;;;;5047010;28;20048;-68
2022/07/24 05:58:44;;;;;;;7.72;4.60;;;;;;;;;;5033375;28;20053;-68
2022/07/24 06:01:10;;;;;;;6.50;4.85;;;;;;;;;;5032154;28;20512;-68
2022/07/24 06:03:36;;;;;;;7.43;4.70;;;;;;;;;;5034766;28;20046;-68
2022/07/24 06:06:04;;;;;;;8.52;4.28;;;;;;;;;;5035729;28;20049;-68
2022/07/24 06:08:30;;;;;;;7.38;4.60;;;;;;;;;;5034882;28;20120;-68
2022/07/24 06:10:56;;;;;;;5.82;4.25;;;;;;;;;;5034968;28;20179;-68
2022/07/24 06:13:22;;;;;;;6.45;4.32;;;;;;;;;;5034882;28;20045;-67
2022/07/24 06:15:48;;;;;;;4.65;3.90;;;;;;;;;;5044206;28;20049;-68
2022/07/24 06:18:14;;;;;;;5.00;3.55;;;;;;;;;;5054296;28;20041;-68
2022/07/24 06:20:40;;;;;;;5.93;3.90;;;;;;;;;;5049115;28;20045;-68
2022/07/24 06:23:06;;;;;;;5.47;3.70;;;;;;;;;;5054419;28;20495;-68
2022/07/24 06:25:32;;;;;;;4.68;3.85;;;;;;;;;;5053789;28;20048;-68
2022/07/24 06:27:58;;;;;;;6.22;3.67;;;;;;;;;;5044469;28;20077;-68
2022/07/24 06:30:25;;;;;;;7.00;3.40;;;;;;;;;;5034348;28;20053;-68
2022/07/24 06:32:52;;;;;;;5.20;3.53;;;;;;;;;;5034484;28;20128;-68
2022/07/24 06:35:18;;;;;;;5.05;3.78;;;;;;;;;;5050926;28;20489;-68
2022/07/24 06:37:44;;;;;;;5.03;3.50;;;;;;;;;;5037474;28;20041;-68
2022/07/24 06:40:11;;;;;;;5.70;3.60;;;;;;;;;;5034205;28;20068;-68
2022/07/24 06:42:37;;;;;;;6.32;3.75;;;;;;;;;;5034327;28;20054;-67
2022/07/24 06:45:03;;;;;;;4.32;3.50;;;;;;;;;;5031440;28;20504;-68
2022/07/24 06:47:29;;;;;;;4.68;3.90;;;;;;;;;;5034027;28;20473;-68
2022/07/24 06:49:55;;;;;;;4.53;3.80;;;;;;;;;;5034697;28;20096;-68
2022/07/24 06:52:22;;;;;;;4.28;3.80;;;;;;;;;;5036738;28;20044;-67
2022/07/24 06:54:48;;;;;;;4.93;3.60;;;;;;;;;;5042077;28;20041;-68
2022/07/24 06:57:14;;;;;;;4.82;3.70;;;;;;;;;;5054119;28;20538;-67
2022/07/24 06:59:40;;;;;;;7.00;3.92;;;;;;;;;;5038353;28;20045;-68
2022/07/24 07:02:06;;;;;;;6.13;3.78;;;;;;;;;;5034268;28;20052;-68
2022/07/24 07:04:32;;;;;;;4.90;3.70;;;;;;;;;;5032787;28;20085;-68
2022/07/24 07:06:58;;;;;;;4.95;3.85;;;;;;;;;;5033656;28;20132;-68
2022/07/24 07:09:24;;;;;;;5.30;3.50;;;;;;;;;;5034235;28;20465;-68
2022/07/24 07:11:51;;;;;;;4.32;3.15;;;;;;;;;;5044027;28;20095;-68
2022/07/24 07:14:17;;;;;;;5.45;3.72;;;;;;;;;;5053017;28;20135;-68
2022/07/24 07:16:43;;;;;;;5.60;3.33;;;;;;;;;;5050079;28;20426;-69
2022/07/24 07:19:09;;;;;;;4.15;3.20;;;;;;;;;;5036305;28;20490;-68
2022/07/24 07:21:36;;;;;;;4.10;3.50;;;;;;;;;;5049655;28;20041;-68
2022/07/24 07:24:02;;;;;;;4.35;3.60;;;;;;;;;;5040548;28;20550;-68
2022/07/24 07:26:28;;;;;;;3.58;3.10;;;;;;;;;;5043008;28;20049;-68
2022/07/24 07:28:54;;;;;;;6.65;3.45;;;;;;;;;;5039285;28;20045;-68
2022/07/24 07:31:21;;;;;;;4.65;3.63;;;;;;;;;;5053273;28;20051;-68
2022/07/24 07:33:47;;;;;;;5.32;3.22;;;;;;;;;;5051192;28;20412;-68
2022/07/24 07:36:13;;;;;;;5.75;2.95;;;;;;;;;;5054166;28;20178;-68
2022/07/24 07:38:39;;;;;;;3.97;3.50;;;;;;;;;;5044421;28;20041;-67
2022/07/24 07:41:06;;;;;;;3.63;2.88;;;;;;;;;;5032702;28;20068;-68
2022/07/24 07:43:32;;;;;;;3.17;2.83;;;;;;;;;;5032016;28;20050;-68
2022/07/24 07:45:58;;;;;;;4.55;3.15;;;;;;;;;;5033764;28;20085;-68
2022/07/24 07:48:24;;;;;;;5.93;3.45;;;;;;;;;;5031126;28;20129;-68
2022/07/24 07:50:50;;;;;;;4.75;2.85;;;;;;;;;;5037256;28;20048;-68
2022/07/24 07:53:16;;;;;;;3.50;2.90;;;;;;;;;;5037853;28;20040;-69
2022/07/24 07:55:42;;;;;;;6.15;3.70;;;;;;;;;;5037188;28;20119;-68
2022/07/24 07:58:09;;;;;;;4.55;3.20;;;;;;;;;;5032069;28;20096;-67
2022/07/24 08:00:36;;;;;;;3.58;3.28;;;;;;;;;;5033111;28;20049;-68
2022/07/24 08:03:02;;;;;;;5.57;3.70;;;;;;;;;;5032980;28;20045;-68
2022/07/24 08:05:29;;;;;;;5.95;4.30;;;;;;;;;;5033662;28;20041;-68
2022/07/24 08:07:55;;;;;;;4.38;3.42;;;;;;;;;;5031310;28;20045;-68
2022/07/24 08:10:21;;;;;;;5.40;3.38;;;;;;;;;;5032670;28;20568;-68
2022/07/24 08:12:47;;;;;;;5.32;3.40;;;;;;;;;;5031572;28;20049;-68
2022/07/24 08:15:13;;;;;;;3.85;3.35;;;;;;;;;;5032443;28;20049;-69
2022/07/24 08:17:39;;;;;;;5.18;3.50;;;;;;;;;;5032951;28;20049;-68
2022/07/24 08:20:06;;;;;;;5.68;3.10;;;;;;;;;;5048960;28;20052;-67
2022/07/24 08:22:32;;;;;;;3.95;3.00;;;;;;;;;;5045335;28;20041;-69
2022/07/24 08:24:58;;;;;;;5.88;2.85;;;;;;;;;;5047668;28;20045;-68
2022/07/24 08:27:24;;;;;;;5.28;3.10;;;;;;;;;;5051574;28;20041;-68
2022/07/24 08:29:50;;;;;;;5.03;3.28;;;;;;;;;;5050585;28;20056;-68
2022/07/24 08:32:16;;;;;;;4.20;2.88;;;;;;;;;;5039872;28;20084;-68
2022/07/24 08:34:42;;;;;;;3.47;2.95;;;;;;;;;;5032846;28;20038;-67
2022/07/24 08:37:08;;;;;;;5.00;3.28;;;;;;;;;;5031853;28;20052;-69
2022/07/24 08:39:34;;;;;;;3.90;3.00;;;;;;;;;;5031563;28;20045;-68
2022/07/24 08:42:00;;;;;;;5.35;3.13;;;;;;;;;;5032291;28;20489;-68
2022/07/24 08:44:26;;;;;;;4.00;3.00;;;;;;;;;;5031801;28;20048;-68
2022/07/24 08:46:53;;;;;;;6.68;3.60;;;;;;;;;;5031426;28;20049;-68
2022/07/24 08:49:20;;;;;;;6.90;4.78;;;;;;;;;;5034657;28;20052;-68
2022/07/24 08:51:46;;;;;;;8.55;6.25;;;;;;;;;;5030146;28;20469;-68
2022/07/24 08:54:12;;;;;;;6.35;3.22;;;;;;;;;;5040885;28;20041;-68
2022/07/24 08:56:39;;;;;;;4.63;2.90;;;;;;;;;;5052294;28;20465;-68
2022/07/24 08:59:15;;;;;;;4.45;3.10;;;;;;;;;;5039452;28;20038;-68
2022/07/24 09:01:41;;;;;;;5.35;3.13;;;;;;;;;;5031012;28;20057;-68
2022/07/24 09:04:27;;;;;;;5.43;3.05;;;;;;;;;;5032237;28;20100;-68
2022/07/24 09:06:57;;;;;;;5.20;3.30;;;;;;;;;;5042510;28;20045;-68
2022/07/24 09:09:23;;;;;;;3.60;2.97;;;;;;;;;;5032460;28;20038;-67
2022/07/24 09:11:50;;;;;;;4.47;2.78;;;;;;;;;;5038913;28;20124;-67
2022/07/24 09:14:32;;;;;;;4.47;3.05;;;;;;;;;;5041522;28;20055;-68
2022/07/24 09:17:08;;;;;;;4.72;3.10;;;;;;;;;;5030747;28;20397;-66
2022/07/24 09:19:53;;;;;;;3.38;2.72;;;;;;;;;;5033303;28;20048;-68
2022/07/24 09:22:32;;;;;;;5.75;2.90;;;;;;;;;;5045240;28;20042;-67
2022/07/24 09:25:05;;;;;;;5.20;3.40;;;;;;;;;;5030618;28;20057;-68
2022/07/24 09:27:31;;;;;;;3.30;3.00;;;;;;;;;;5030824;28;20045;-68
2022/07/24 09:29:57;;;;;;;5.28;3.00;;;;;;;;;;5031855;28;20300;-68
2022/07/24 09:32:23;;;;;;;5.47;3.00;;;;;;;;;;5029990;28;20092;-68
2022/07/24 09:34:51;;;;;;;3.97;2.80;;;;;;;;;;5030074;28;20045;-69
2022/07/24 09:37:17;;;;;;;3.08;2.78;;;;;;;;;;5036850;28;20088;-68
2022/07/24 09:39:43;;;;;;;5.50;3.05;;;;;;;;;;5034904;28;20084;-68
2022/07/24 09:42:10;;;;;;;3.20;2.60;;;;;;;;;;5035639;28;20061;-68
2022/07/24 09:44:36;;;;;;;5.18;2.70;;;;;;;;;;5035622;28;20050;-68
2022/07/24 09:47:07;;;;;;;5.38;3.30;;;;;;;;;;5033956;28;20056;-68
2022/07/24 09:49:33;;;;;;;4.05;2.65;;;;;;;;;;5035982;28;20124;-69
2022/07/24 09:52:05;;;;;;;4.40;3.03;;;;;;;;;;5034101;28;20624;-68
2022/07/24 09:54:32;;;;;;;5.30;2.90;;;;;;;;;;5036165;28;20053;-68
2022/07/24 09:57:18;;;;;;;4.35;2.95;;;;;;;;;;5036099;28;20043;-69
2022/07/24 10:00:13;;;;;;;7.05;3.45;;;;;;;;;;5042380;28;20047;-69
2022/07/24 10:02:43;;;;;;;4.75;3.00;;;;;;;;;;5024614;28;20068;-68
2022/07/24 10:05:13;;;;;;;;;;;;;;;;;;5036042;28;20481;-68
2022/07/24 10:07:39;;;;;;;5.07;2.90;;;;;;;;;;5034373;28;19921;-69
2022/07/24 10:10:05;;;;;;;5.40;3.03;;;;;;;;;;5035950;28;20117;-68
2022/07/24 10:12:32;;;;;;;6.65;3.17;;;;;;;;;;5044050;28;20504;-68
2022/07/24 10:14:59;;;;;;;7.18;3.22;;;;;;;;;;5054454;28;20086;-69
2022/07/24 10:17:40;;;;;;;3.35;2.80;;;;;;;;;;5039461;28;20053;-68
2022/07/24 10:20:08;;;;;;;4.22;2.85;;;;;;;;;;5035486;28;20458;-69
2022/07/24 10:22:39;;;;;;;3.78;2.85;;;;;;;;;;5033018;28;20078;-69
2022/07/24 10:25:07;;;;;;;6.13;3.20;;;;;;;;;;5038993;28;20045;-69
2022/07/24 10:27:34;;;;;;;3.83;2.72;;;;;;;;;;5044038;28;20077;-69
2022/07/24 10:30:02;;;;;;;4.22;2.72;;;;;;;;;;5034139;28;20111;-69
2022/07/24 10:32:28;;;;;;;4.72;2.50;;;;;;;;;;5034041;28;20469;-69
2022/07/24 10:34:54;;;;;;;4.07;2.95;;;;;;;;;;5033641;28;20123;-69
2022/07/24 10:37:20;;;;;;;3.42;2.88;;;;;;;;;;5033050;28;20483;-69
2022/07/24 10:40:02;;;;;;;4.63;3.10;;;;;;;;;;5034661;28;20077;-69
2022/07/24 10:42:28;;;;;;;5.35;2.60;;;;;;;;;;5036640;28;20085;-69
2022/07/24 10:45:13;;;;;;;3.97;2.67;;;;;;;;;;5034766;28;20053;-69
2022/07/24 10:47:39;;;;;;;3.90;2.90;;;;;;;;;;5032870;28;20120;-68
2022/07/24 10:50:05;;;;;;;3.45;2.70;;;;;;;;;;5034905;28;20085;-69
2022/07/24 10:52:37;;;;;;;3.17;2.58;;;;;;;;;;5035282;28;20045;-69
2022/07/24 10:55:21;;;;;;;3.90;2.53;;;;;;;;;;5033655;28;20060;-69
2022/07/24 10:57:54;;;;;;;5.55;2.83;;;;;;;;;;5034105;28;20413;-70
2022/07/24 11:00:24;;;;;;;3.28;2.60;;;;;;;;;;5033864;28;20404;-69
2022/07/24 11:02:58;;;;;;;5.93;2.63;;;;;;;;;;5032906;28;20041;-69
2022/07/24 11:05:29;;;;;;;5.53;2.78;;;;;;;;;;5043555;28;20080;-69
2022/07/24 11:08:15;;;;;;;4.05;2.88;;;;;;;;;;5052963;28;20045;-69
2022/07/24 11:10:47;;;;;;;3.03;2.75;;;;;;;;;;5044771;28;20043;-69
2022/07/24 11:13:31;;;;;;;4.00;2.30;;;;;;;;;;5034543;28;20042;-69
2022/07/24 11:16:16;;;;;;;2.95;2.60;;;;;;;;;;5034473;28;20057;-69
2022/07/24 11:18:45;;;;;;;3.20;2.60;;;;;;;;;;5035472;28;20053;-68
2022/07/24 11:21:11;;;;;;;4.00;2.60;;;;;;;;;;5050662;28;20122;-69
2022/07/24 11:23:37;;;;;;;3.90;2.63;;;;;;;;;;5036531;28;20377;-69
2022/07/24 11:26:22;;;;;;;5.68;2.88;;;;;;;;;;5035751;28;20092;-69
2022/07/24 11:29:15;;;;;;;3.22;2.38;;;;;;;;;;5032624;28;20088;-68
2022/07/24 11:31:41;;;;;;;3.88;2.30;;;;;;;;;;5024042;28;20053;-68
2022/07/24 11:34:09;;;;;;;3.75;3.38;;;;;;;;;;5031779;28;20115;-68
2022/07/24 11:36:35;;;;;;;7.10;5.20;;;;;;;;;;5033660;28;20041;-68
2022/07/24 11:39:03;;;;;;;4.13;2.67;;;;;;;;;;5040794;28;20500;-70
2022/07/24 11:41:44;;;;;;;2.92;2.53;;;;;;;;;;5053464;28;20061;-69
2022/07/24 11:44:10;;;;;;;4.90;2.55;;;;;;;;;;5054023;28;20560;-68
2022/07/24 11:46:37;;;;;;;2.95;2.30;;;;;;;;;;5035101;28;20073;-69
2022/07/24 11:49:07;;;;;;;2.42;2.15;;;;;;;;;;5038080;28;20045;-68
2022/07/24 11:51:41;;;;;;;4.13;2.60;;;;;;;;;;5052600;28;20080;-69
2022/07/24 11:54:12;;;;;;;2.47;2.28;;;;;;;;;;5031530;28;20048;-68
2022/07/24 11:56:38;;;;;;;3.42;2.05;;;;;;;;;;5032303;28;20496;-68
2022/07/24 11:59:04;;;;;;;2.20;1.92;;;;;;;;;;5032982;28;20045;-69
2022/07/24 12:01:30;;;;;;;5.00;2.22;;;;;;;;;;5032670;28;20052;-68
2022/07/24 12:03:57;;;;;;;4.35;2.30;;;;;;;;;;5033916;28;20060;-68
2022/07/24 12:06:24;;;;;;;3.85;2.30;;;;;;;;;;5033506;28;20056;-68
2022/07/24 12:08:50;;;;;;;4.03;2.20;;;;;;;;;;5032074;28;20034;-68
2022/07/24 12:11:22;;;;;;;4.93;2.50;;;;;;;;;;5033495;28;20051;-69
2022/07/24 12:13:48;;;;;;;4.80;2.40;;;;;;;;;;5033112;28;20069;-68
2022/07/24 12:16:30;;;;;;;3.38;2.00;;;;;;;;;;5032710;28;20038;-68
2022/07/24 12:19:12;;;;;;;4.10;2.33;;;;;;;;;;5037228;28;20189;-69
2022/07/24 12:21:38;;;;;;;3.90;2.20;;;;;;;;;;5031165;28;20046;-68
2022/07/24 12:24:04;;;;;;;2.40;2.17;;;;;;;;;;5031982;28;20045;-68
2022/07/24 12:26:30;;;;;;;3.53;2.30;;;;;;;;;;5031756;28;20052;-69
2022/07/24 12:29:12;;;;;;;3.70;2.00;;;;;;;;;;5048159;28;20408;-69
2022/07/24 12:31:38;;;;;;;2.60;2.03;;;;;;;;;;5052884;28;20079;-69
2022/07/24 12:34:04;;;;;;;2.38;2.17;;;;;;;;;;5033888;28;20080;-69
2022/07/24 12:36:30;;;;;;;3.03;2.22;;;;;;;;;;5042838;28;20045;-69
2022/07/24 12:38:57;;;;;;;3.28;2.17;;;;;;;;;;5034667;28;20038;-69
2022/07/24 12:41:28;;;;;;;2.53;2.28;;;;;;;;;;5033591;28;20049;-68
2022/07/24 12:43:54;;;;;;;2.22;2.00;;;;;;;;;;5032896;28;20424;-69
2022/07/24 12:46:31;;;;;;;3.85;2.10;;;;;;;;;;5031463;28;20048;-68
2022/07/24 12:48:59;;;;;;;4.75;3.75;;;;;;;;;;5030895;28;20077;-70
2022/07/24 12:51:25;;;;;;;2.70;2.00;;;;;;;;;;5031946;28;20089;-69
2022/07/24 12:53:53;;;;;;;2.05;1.95;;;;;;;;;;5049212;28;20056;-69
2022/07/24 12:56:19;;;;;;;2.25;2.03;;;;;;;;;;5051496;28;20047;-69
2022/07/24 12:59:02;;;;;;;2.38;2.15;;;;;;;;;;5052018;28;20080;-69
2022/07/24 13:01:43;;;;;;;2.28;2.00;;;;;;;;;;5045239;28;20041;-70
2022/07/24 13:04:09;;;;;;;2.22;2.00;;;;;;;;;;5030233;28;20467;-69
2022/07/24 13:06:39;;;;;;;3.95;1.95;;;;;;;;;;5031850;28;20055;-69
2022/07/24 13:09:06;;;;;;;2.67;2.10;;;;;;;;;;5032986;28;20045;-69
2022/07/24 13:11:32;;;;;;;3.40;2.00;;;;;;;;;;5033916;28;20120;-69
2022/07/24 13:13:58;;;;;;;2.00;1.90;;;;;;;;;;5050924;28;20053;-69
2022/07/24 13:16:27;;;;;;;2.50;2.30;;;;;;;;;;5050941;28;20089;-69
2022/07/24 13:18:54;;;;;;;2.10;1.90;;;;;;;;;;5051514;28;20542;-70
2022/07/24 13:21:20;;;;;;;4.40;2.20;;;;;;;;;;5052350;28;20049;-69
2022/07/24 13:23:46;;;;;;;4.70;2.00;;;;;;;;;;5033542;28;20055;-69
2022/07/24 13:26:12;;;;;;;4.63;2.00;;;;;;;;;;5045995;28;20135;-67
2022/07/24 13:32:01;;;;;;;3.35;2.20;;;;;;;;;;5031454;28;20043;-69
2022/07/24 13:34:28;;;;;;;2.15;1.95;;;;;;;;;;5031795;28;20045;-69
2022/07/24 13:36:54;;;;;;;2.55;2.10;;;;;;;;;;5031997;28;20115;-69
2022/07/24 13:39:21;;;;;;;2.35;2.15;;;;;;;;;;5034252;28;20045;-69
2022/07/24 13:41:47;;;;;;;5.65;2.15;;;;;;;;;;5049825;28;20053;-69
2022/07/24 13:44:13;;;;;;;2.72;2.20;;;;;;;;;;5033608;28;20049;-69
2022/07/24 13:46:39;;;;;;;4.93;2.13;;;;;;;;;;5029445;28;20049;-68
2022/07/24 13:49:07;;;;;;;4.90;2.67;;;;;;;;;;5030865;28;20050;-69
2022/07/24 13:51:33;;;;;;;2.63;2.42;;;;;;;;;;5030475;28;20405;-69
2022/07/24 13:53:59;;;;;;;2.67;2.33;;;;;;;;;;5030908;28;20409;-67
2022/07/24 13:56:26;;;;;;;3.83;2.22;;;;;;;;;;5037814;28;20443;-67
2022/07/24 13:58:52;;;;;;;2.83;2.38;;;;;;;;;;5050224;28;20057;-67
2022/07/24 14:01:19;;;;;;;3.20;2.50;;;;;;;;;;5046848;28;20041;-67
2022/07/24 14:03:45;;;;;;;3.15;2.30;;;;;;;;;;5050370;28;20584;-68
2022/07/24 14:06:11;;;;;;;3.15;2.33;;;;;;;;;;5050541;28;20083;-67
2022/07/24 14:08:38;;;;;;;3.60;2.30;;;;;;;;;;5033058;28;20053;-67
2022/07/24 14:11:04;;;;;;;3.28;2.53;;;;;;;;;;5031676;28;20092;-68
2022/07/24 14:13:30;;;;;;;4.90;2.22;;;;;;;;;;5031460;28;20535;-67
2022/07/24 14:15:56;;;;;;;3.10;2.33;;;;;;;;;;5037439;28;20095;-67
2022/07/24 14:18:22;;;;;;;2.63;2.35;;;;;;;;;;5030597;28;20053;-67
2022/07/24 14:20:48;;;;;;;2.40;2.20;;;;;;;;;;5032256;28;20171;-67
2022/07/24 14:23:19;;;;;;;3.25;2.40;;;;;;;;;;5035230;28;20067;-68
2022/07/24 14:25:45;;;;;;;3.00;2.40;;;;;;;;;;5035871;28;20188;-67
2022/07/24 14:28:11;;;;;;;3.30;2.25;;;;;;;;;;5041336;28;20073;-68
2022/07/24 14:30:41;;;;;;;4.05;2.40;;;;;;;;;;5035589;28;20041;-67
2022/07/24 14:33:07;;;;;;;3.22;2.08;;;;;;;;;;5034946;28;20128;-68
2022/07/24 14:35:34;;;;;;;2.50;2.28;;;;;;;;;;5036835;28;20064;-68
2022/07/24 14:38:01;;;;;;;3.85;2.20;;;;;;;;;;5053656;28;20496;-68
2022/07/24 14:40:27;;;;;;;4.10;2.97;;;;;;;;;;5055326;28;20080;-69
2022/07/24 14:42:54;;;;;;;3.30;2.85;;;;;;;;;;5048802;28;20067;-67
2022/07/24 14:45:20;;;;;;;3.30;2.35;;;;;;;;;;5033124;28;20053;-67